createdAt,value
2023-02-12T00:01:00.112Z,42.28
2023-02-12T00:04:02.430Z,43.90
2023-02-12T00:07:04.607Z,45.15
2023-02-12T00:10:07.466Z,47.42
2023-02-12T00:13:11.187Z,44.08
2023-02-12T00:16:19.552Z,43.53
2023-02-12T00:19:21.727Z,46.78
2023-02-12T00:22:24.910Z,45.33
2023-02-12T00:25:27.138Z,42.50
2023-02-12T00:28:29.415Z,46.88
2023-02-12T00:31:32.409Z,41.60
2023-02-12T00:34:34.698Z,43.72
2023-02-12T00:37:36.975Z,40.58
2023-02-12T00:40:39.257Z,44.28
2023-02-12T00:43:41.809Z,42.92
2023-02-12T00:46:44.120Z,49.75
2023-02-12T00:49:46.374Z,47.97
2023-02-12T00:52:48.686Z,46.22
2023-02-12T00:55:51.769Z,49.53
2023-02-12T00:58:53.991Z,52.33
2023-02-12T01:01:56.587Z,41.35
2023-02-12T01:04:59.550Z,46.10
2023-02-12T01:08:02.211Z,48.08
2023-02-12T01:11:06.337Z,44.58
2023-02-12T01:14:08.910Z,50.13
2023-02-12T01:17:11.149Z,48.60
2023-02-12T01:20:17.854Z,46.08
2023-02-12T01:23:20.062Z,48.33
2023-02-12T01:26:23.784Z,47.55
2023-02-12T01:29:25.929Z,47.40
2023-02-12T01:32:28.404Z,48.00
2023-02-12T01:35:30.563Z,46.55
2023-02-12T01:38:32.928Z,45.67
2023-02-12T01:41:39.631Z,43.28
2023-02-12T01:45:10.721Z,48.78
2023-02-12T01:48:15.519Z,49.15
2023-02-12T01:51:22.362Z,51.05
2023-02-12T01:54:26.651Z,43.17
2023-02-12T01:57:32.427Z,54.55
2023-02-12T02:00:34.660Z,44.92
2023-02-12T02:03:39.642Z,47.15
2023-02-12T02:06:54.350Z,42.13
2023-02-12T02:09:57.997Z,52.05
2023-02-12T02:13:23.075Z,49.03
2023-02-12T02:16:28.077Z,43.35
2023-02-12T02:20:04.469Z,45.83
2023-02-12T02:23:29.844Z,47.95
2023-02-12T02:26:47.472Z,50.20
2023-02-12T02:30:04.587Z,46.35
2023-02-12T02:33:40.880Z,46.80
2023-02-12T02:37:03.765Z,39.58
2023-02-12T02:40:14.858Z,49.75
2023-02-12T02:43:23.924Z,49.88
2023-02-12T02:46:26.134Z,47.83
2023-02-12T02:49:39.409Z,46.83
2023-02-12T02:52:45.592Z,46.67
2023-02-12T02:55:52.431Z,46.80
2023-02-12T02:59:01.781Z,52.15
2023-02-12T03:02:14.016Z,46.92
2023-02-12T03:05:37.863Z,46.45
2023-02-12T03:08:46.938Z,45.20
2023-02-12T03:11:51.106Z,50.17
2023-02-12T03:15:05.429Z,49.88
2023-02-12T03:18:12.978Z,48.55
2023-02-12T03:21:19.621Z,48.65
2023-02-12T03:24:58.884Z,49.28
2023-02-12T03:28:15.297Z,48.42
2023-02-12T03:32:04.930Z,43.90
2023-02-12T03:35:24.734Z,45.72
2023-02-12T03:38:26.980Z,43.47
2023-02-12T03:41:41.959Z,51.58
2023-02-12T03:44:56.475Z,48.20
2023-02-12T03:48:23.386Z,47.58
2023-02-12T03:51:31.770Z,45.83
2023-02-12T03:54:34.046Z,49.88
2023-02-12T03:57:44.521Z,55.20
2023-02-12T04:00:46.872Z,47.65
2023-02-12T04:03:49.145Z,46.97
2023-02-12T04:06:52.899Z,47.70
2023-02-12T04:09:55.112Z,47.72
2023-02-12T04:13:12.280Z,46.13
2023-02-12T04:16:33.726Z,48.78
2023-02-12T04:19:43.878Z,47.10
2023-02-12T04:23:11.809Z,53.25
2023-02-12T04:26:36.198Z,47.90
2023-02-12T04:29:56.300Z,51.35
2023-02-12T04:33:04.478Z,50.33
2023-02-12T04:36:17.113Z,49.25
2023-02-12T04:39:23.474Z,49.10
2023-02-12T04:42:26.012Z,50.47
2023-02-12T04:45:30.807Z,53.15
2023-02-12T04:48:34.729Z,50.50
2023-02-12T04:51:36.951Z,51.25
2023-02-12T04:54:39.310Z,45.28
2023-02-12T04:57:41.571Z,51.80
2023-02-12T05:00:43.775Z,51.40
2023-02-12T05:03:45.926Z,50.92
2023-02-12T05:06:48.104Z,45.85
2023-02-12T05:09:50.261Z,47.60
2023-02-12T05:12:53.842Z,52.08
2023-02-12T05:15:56.274Z,49.03
2023-02-12T05:18:58.580Z,55.35
2023-02-12T05:22:00.816Z,52.80
2023-02-12T05:25:03.157Z,53.80
2023-02-12T05:28:05.327Z,50.53
2023-02-12T05:31:09.180Z,49.35
2023-02-12T05:34:12.529Z,50.97
2023-02-12T05:37:14.862Z,49.35
2023-02-12T05:40:17.457Z,48.33
2023-02-12T05:43:19.592Z,52.85
2023-02-12T05:46:22.538Z,51.70
2023-02-12T05:49:24.803Z,55.05
2023-02-12T05:52:27.033Z,52.28
2023-02-12T05:55:29.368Z,53.22
2023-02-12T05:58:31.508Z,51.85
2023-02-12T06:01:36.554Z,53.20
2023-02-12T06:04:38.693Z,48.70
2023-02-12T06:07:40.788Z,50.42
2023-02-12T06:10:42.978Z,51.90
2023-02-12T06:13:45.631Z,54.58
2023-02-12T06:16:49.744Z,49.45
2023-02-12T06:19:51.904Z,54.30
2023-02-12T06:22:54.063Z,51.10
2023-02-12T06:25:57.577Z,55.03
2023-02-12T06:29:01.134Z,54.40
2023-02-12T06:32:03.584Z,49.05
2023-02-12T06:35:06.318Z,45.25
2023-02-12T06:38:09.407Z,52.53
2023-02-12T06:41:12.228Z,56.75
2023-02-12T06:44:14.743Z,44.97
2023-02-12T06:47:16.931Z,53.97
2023-02-12T06:50:19.487Z,51.83
2023-02-12T06:53:22.035Z,46.42
2023-02-12T06:56:25.493Z,52.55
2023-02-12T06:59:27.619Z,47.38
2023-02-12T07:02:29.798Z,52.40
2023-02-12T07:05:32.945Z,51.03
2023-02-12T07:08:35.182Z,50.83
2023-02-12T07:11:38.598Z,52.40
2023-02-12T07:14:41.112Z,53.78
2023-02-12T07:17:43.263Z,51.72
2023-02-12T07:20:45.452Z,50.70
2023-02-12T07:23:51.382Z,50.47
2023-02-12T07:26:53.801Z,54.83
2023-02-12T07:29:55.932Z,54.67
2023-02-12T07:32:57.986Z,54.17
2023-02-12T07:36:01.320Z,52.00
2023-02-12T07:39:04.524Z,58.95
2023-02-12T07:42:08.707Z,55.80
2023-02-12T07:45:11.075Z,56.40
2023-02-12T07:48:13.349Z,53.65
2023-02-12T07:51:19.487Z,57.08
2023-02-12T07:54:21.735Z,53.80
2023-02-12T07:57:23.833Z,57.20
2023-02-12T08:00:25.959Z,53.17
2023-02-12T08:03:29.396Z,57.60
2023-02-12T08:06:34.162Z,56.15
2023-02-12T08:09:36.412Z,51.70
2023-02-12T08:12:38.581Z,51.72
2023-02-12T08:15:40.812Z,54.53
2023-02-12T08:18:43.835Z,56.20
2023-02-12T08:21:47.467Z,59.92
2023-02-12T08:24:49.596Z,53.97
2023-02-12T08:27:51.726Z,56.35
2023-02-12T08:30:53.992Z,53.35
2023-02-12T08:33:57.054Z,59.10
2023-02-12T08:37:00.398Z,52.00
2023-02-12T08:40:02.513Z,59.10
2023-02-12T08:43:04.674Z,50.40
2023-02-12T08:46:16.207Z,55.33
2023-02-12T08:49:21.151Z,49.78
2023-02-12T08:52:23.414Z,56.63
2023-02-12T08:55:25.629Z,56.78
2023-02-12T08:58:27.887Z,52.42
2023-02-12T09:01:33.492Z,56.13
2023-02-12T09:04:36.086Z,56.67
2023-02-12T09:07:38.181Z,59.13
2023-02-12T09:10:42.108Z,57.47
2023-02-12T09:13:46.046Z,54.60
2023-02-12T09:16:48.242Z,58.08
2023-02-12T09:19:50.396Z,60.38
2023-02-12T09:22:54.163Z,57.25
2023-02-12T09:25:56.649Z,56.00
2023-02-12T09:28:59.264Z,56.25
2023-02-12T09:32:04.908Z,56.13
2023-02-12T09:35:07.354Z,54.58
2023-02-12T09:38:09.617Z,57.58
2023-02-12T09:41:42.733Z,54.97
2023-02-12T09:45:12.745Z,54.45
2023-02-12T09:48:47.215Z,55.13
2023-02-12T09:51:54.050Z,57.75
2023-02-12T09:54:57.055Z,52.47
2023-02-12T09:58:02.415Z,50.83
2023-02-12T10:01:13.744Z,54.25
2023-02-12T10:04:16.051Z,50.30
2023-02-12T10:07:43.147Z,53.25
2023-02-12T10:11:22.726Z,55.00
2023-02-12T10:14:48.106Z,54.77
2023-02-12T10:18:18.037Z,55.03
2023-02-12T10:21:42.030Z,50.78
2023-02-12T10:25:18.044Z,53.20
2023-02-12T10:28:35.938Z,51.22
2023-02-12T10:31:43.067Z,48.78
2023-02-12T10:34:46.017Z,50.60
2023-02-12T10:37:57.152Z,54.08
2023-02-12T10:41:02.117Z,47.95
2023-02-12T10:44:04.348Z,50.38
2023-02-12T10:47:08.710Z,49.80
2023-02-12T10:50:48.335Z,56.70
2023-02-12T10:53:50.438Z,47.80
2023-02-12T10:56:52.636Z,47.17
2023-02-12T11:00:13.838Z,49.90
2023-02-12T11:03:24.251Z,50.40
2023-02-12T11:06:30.155Z,50.45
2023-02-12T11:09:36.766Z,52.78
2023-02-12T11:12:48.391Z,47.90
2023-02-12T11:15:51.354Z,49.55
2023-02-12T11:19:06.381Z,49.08
2023-02-12T11:22:19.049Z,50.80
2023-02-12T11:25:22.252Z,43.58
2023-02-12T11:28:24.671Z,50.75
2023-02-12T11:31:35.390Z,48.58
2023-02-12T11:34:38.220Z,48.50
2023-02-12T11:37:43.400Z,51.95
2023-02-12T11:40:47.687Z,47.75
2023-02-12T11:43:51.959Z,53.20
2023-02-12T11:46:58.875Z,47.53
2023-02-12T11:50:25.908Z,48.92
2023-02-12T11:53:33.353Z,44.38
2023-02-12T11:56:44.920Z,47.70
2023-02-12T11:59:48.406Z,49.13
2023-02-12T12:03:16.895Z,43.38
2023-02-12T12:06:24.634Z,44.63
2023-02-12T12:09:30.429Z,46.75
2023-02-12T12:12:53.989Z,51.63
2023-02-12T12:16:39.652Z,46.97
2023-02-12T12:19:53.123Z,46.60
2023-02-12T12:23:01.045Z,45.20
2023-02-12T12:26:13.202Z,46.63
2023-02-12T12:29:22.380Z,48.08
2023-02-12T12:32:26.777Z,52.92
2023-02-12T12:35:45.743Z,52.75
2023-02-12T12:39:00.103Z,50.13
2023-02-12T12:42:40.312Z,45.58
2023-02-12T12:46:01.385Z,43.53
2023-02-12T12:49:30.574Z,46.30
2023-02-12T12:52:44.519Z,42.58
2023-02-12T12:56:00.594Z,41.53
2023-02-12T12:59:22.096Z,43.08
2023-02-12T13:02:34.462Z,46.35
2023-02-12T13:06:07.626Z,42.35
2023-02-12T13:09:31.882Z,40.33
2023-02-12T13:12:53.144Z,42.17
2023-02-12T13:16:16.487Z,40.65
2023-02-12T13:19:37.161Z,47.22
2023-02-12T13:23:01.645Z,39.15
2023-02-12T13:26:06.659Z,39.35
2023-02-12T13:29:20.519Z,43.15
2023-02-12T13:32:34.869Z,45.17
2023-02-12T13:35:41.710Z,39.22
2023-02-12T13:39:07.120Z,42.78
2023-02-12T13:42:15.305Z,40.50
2023-02-12T13:45:35.282Z,44.22
2023-02-12T13:48:56.165Z,47.78
2023-02-12T13:52:10.537Z,43.50
2023-02-12T13:55:28.599Z,43.05
2023-02-12T13:58:35.173Z,44.67
2023-02-12T14:01:43.727Z,42.85
2023-02-12T14:04:55.514Z,44.30
2023-02-12T14:08:05.756Z,45.15
2023-02-12T14:14:26.215Z,42.03
2023-02-12T14:17:31.630Z,43.33
2023-02-12T14:20:36.409Z,41.92
2023-02-12T14:23:42.208Z,47.13
2023-02-12T14:26:44.638Z,46.08
2023-02-12T14:30:11.913Z,37.13
2023-02-12T14:33:26.620Z,34.42
2023-02-12T14:36:32.162Z,28.58
2023-02-12T14:39:34.470Z,27.92
2023-02-12T14:42:37.161Z,37.97
2023-02-12T14:45:39.302Z,36.88
2023-02-12T14:48:59.333Z,32.80
2023-02-12T14:55:53.818Z,31.30
2023-02-12T14:58:59.265Z,32.90
2023-02-12T15:02:03.867Z,29.23
2023-02-12T15:05:14.274Z,29.75
2023-02-12T15:08:35.105Z,31.27
2023-02-12T15:11:45.246Z,31.02
2023-02-12T15:15:02.689Z,34.38
2023-02-12T15:18:43.159Z,39.38
2023-02-12T15:21:46.387Z,36.05
2023-02-12T15:24:48.863Z,34.45
2023-02-12T15:27:55.535Z,36.25
2023-02-12T15:30:57.987Z,36.13
2023-02-12T15:34:03.691Z,35.92
2023-02-12T15:37:07.632Z,32.83
2023-02-12T15:40:15.946Z,40.28
2023-02-12T15:43:18.981Z,33.20
2023-02-12T15:46:21.284Z,32.80
2023-02-12T15:49:29.357Z,33.72
2023-02-12T15:52:36.336Z,35.50
2023-02-12T15:55:42.559Z,35.30
2023-02-12T15:58:49.156Z,39.35
2023-02-12T16:02:03.616Z,37.83
2023-02-12T16:05:06.777Z,38.78
2023-02-12T16:08:14.941Z,31.88
2023-02-12T16:11:22.289Z,36.08
2023-02-12T16:14:36.868Z,34.45
2023-02-12T16:17:47.240Z,36.65
2023-02-12T16:20:50.192Z,35.60
2023-02-12T16:23:52.404Z,35.13
2023-02-12T16:26:55.840Z,37.75
2023-02-12T16:30:08.603Z,35.20
2023-02-12T16:33:45.478Z,33.58
2023-02-12T16:36:47.638Z,31.27
2023-02-12T16:40:00.922Z,32.53
2023-02-12T16:43:21.828Z,32.13
2023-02-12T16:46:24.093Z,32.78
2023-02-12T16:49:27.273Z,32.83
2023-02-12T16:52:41.131Z,29.55
2023-02-12T16:55:43.347Z,31.02
2023-02-12T16:58:48.607Z,32.15
2023-02-12T17:02:07.169Z,30.65
2023-02-12T17:05:10.461Z,33.33
2023-02-12T17:08:18.834Z,28.95
2023-02-12T17:11:23.313Z,35.35
2023-02-12T17:14:25.523Z,32.13
2023-02-12T17:17:27.829Z,33.22
2023-02-12T17:20:30.181Z,29.90
2023-02-12T17:23:33.393Z,28.90
2023-02-12T17:26:35.672Z,29.20
2023-02-12T17:29:38.044Z,29.33
2023-02-12T17:32:40.168Z,28.35
2023-02-12T17:35:42.638Z,31.30
2023-02-12T17:38:44.827Z,29.48
2023-02-12T17:41:47.231Z,28.50
2023-02-12T17:44:49.796Z,28.80
2023-02-12T17:47:52.016Z,30.92
2023-02-12T17:50:57.065Z,29.88
2023-02-12T17:53:59.452Z,30.15
2023-02-12T17:57:01.605Z,31.52
2023-02-12T18:00:06.363Z,32.03
2023-02-12T18:03:12.712Z,31.08
2023-02-12T18:06:21.158Z,32.03
2023-02-12T18:09:23.314Z,30.35
2023-02-12T18:12:25.436Z,30.48
2023-02-12T18:15:27.644Z,28.15
2023-02-12T18:18:29.843Z,31.38
2023-02-12T18:21:34.072Z,32.53
2023-02-12T18:24:36.915Z,29.73
2023-02-12T18:27:39.649Z,26.23
2023-02-12T18:30:43.383Z,31.45
2023-02-12T18:33:45.725Z,28.30
2023-02-12T18:36:48.920Z,28.20
2023-02-12T18:39:51.209Z,28.90
2023-02-12T18:42:53.514Z,24.95
2023-02-12T18:45:55.804Z,27.80
2023-02-12T18:48:58.783Z,29.17
2023-02-12T18:52:02.203Z,29.00
2023-02-12T18:55:06.515Z,28.67
2023-02-12T18:58:08.850Z,28.65
2023-02-12T19:01:19.977Z,27.20
2023-02-12T19:04:24.219Z,28.80
2023-02-12T19:07:27.518Z,26.15
2023-02-12T19:10:29.850Z,26.20
2023-02-12T19:13:32.063Z,28.40
2023-02-12T19:16:34.424Z,29.08
2023-02-12T19:19:36.878Z,26.52
2023-02-12T19:22:39.941Z,29.77
2023-02-12T19:25:45.378Z,26.00
2023-02-12T19:28:47.702Z,24.02
2023-02-12T19:31:50.081Z,28.55
2023-02-12T19:34:52.313Z,25.63
2023-02-12T19:37:54.538Z,27.98
2023-02-12T19:41:08.314Z,27.00
2023-02-12T19:44:14.556Z,27.58
2023-02-12T19:47:16.758Z,29.85
2023-02-12T19:50:19.057Z,26.50
2023-02-12T19:53:21.292Z,25.92
2023-02-12T19:56:23.456Z,27.13
2023-02-12T19:59:27.240Z,27.83
2023-02-12T20:02:29.500Z,28.45
2023-02-12T20:05:31.628Z,24.13
2023-02-12T20:08:33.803Z,27.58
2023-02-12T20:11:40.270Z,23.73
2023-02-12T20:14:42.635Z,27.60
2023-02-12T20:17:44.870Z,28.73
2023-02-12T20:20:47.102Z,25.85
2023-02-12T20:23:49.582Z,26.65
2023-02-12T20:26:52.954Z,29.40
2023-02-12T20:29:55.275Z,24.33
2023-02-12T20:32:57.516Z,26.60
2023-02-12T20:35:59.751Z,24.10
2023-02-12T20:39:02.073Z,27.45
2023-02-12T20:42:04.444Z,26.85
2023-02-12T20:45:06.863Z,23.52
2023-02-12T20:48:09.003Z,30.27
2023-02-12T20:51:14.673Z,27.75
2023-02-12T20:54:16.839Z,28.38
2023-02-12T20:57:18.960Z,25.60
2023-02-12T21:00:21.390Z,27.60
2023-02-12T21:03:23.493Z,26.95
2023-02-12T21:06:25.785Z,26.98
2023-02-12T21:09:28.180Z,27.10
2023-02-12T21:12:30.392Z,28.10
2023-02-12T21:15:32.699Z,27.60
2023-02-12T21:18:34.901Z,28.55
2023-02-12T21:21:39.320Z,29.17
2023-02-12T21:24:41.518Z,38.22
2023-02-12T21:27:43.727Z,47.35
2023-02-12T21:30:46.452Z,55.90
2023-02-12T21:33:50.352Z,56.85
2023-02-12T21:36:56.984Z,54.22
2023-02-12T21:39:59.233Z,53.78
2023-02-12T21:43:02.112Z,54.42
2023-02-12T21:46:05.287Z,51.67
2023-02-12T21:49:07.990Z,50.40
2023-02-12T21:52:11.566Z,51.97
2023-02-12T21:55:13.764Z,48.20
2023-02-12T21:58:16.023Z,56.28
2023-02-12T22:01:24.094Z,48.28
2023-02-12T22:04:26.637Z,48.80
2023-02-12T22:07:28.781Z,50.03
2023-02-12T22:10:31.201Z,46.95
2023-02-12T22:13:34.076Z,48.67
2023-02-12T22:16:36.905Z,46.85
2023-02-12T22:19:39.514Z,49.17
2023-02-12T22:22:41.663Z,43.33
2023-02-12T22:25:43.859Z,48.65
2023-02-12T22:28:48.375Z,47.00
2023-02-12T22:31:50.671Z,40.97
2023-02-12T22:34:53.489Z,47.20
2023-02-12T22:37:55.629Z,39.95
2023-02-12T22:40:58.100Z,42.75
2023-02-12T22:44:02.286Z,42.13
2023-02-12T22:47:04.704Z,43.08
2023-02-12T22:50:07.559Z,46.40
2023-02-12T22:53:09.723Z,42.67
2023-02-12T22:56:12.237Z,41.83
2023-02-12T22:59:14.508Z,42.20
2023-02-12T23:02:16.781Z,43.53
2023-02-12T23:05:18.958Z,41.05
2023-02-12T23:08:21.095Z,46.22
2023-02-12T23:11:26.574Z,40.72
2023-02-12T23:14:28.733Z,36.33
2023-02-12T23:17:30.892Z,38.47
2023-02-12T23:20:33.141Z,39.63
2023-02-12T23:23:35.362Z,38.80
2023-02-12T23:26:37.558Z,39.72
2023-02-12T23:29:40.466Z,40.08
2023-02-12T23:32:42.766Z,35.85
2023-02-12T23:35:45.976Z,42.25
2023-02-12T23:38:48.274Z,35.40
2023-02-12T23:41:50.391Z,35.88
2023-02-12T23:44:52.541Z,38.53
2023-02-12T23:47:55.136Z,37.72
2023-02-12T23:50:57.852Z,35.25
2023-02-12T23:54:01.901Z,35.33
2023-02-12T23:57:04.199Z,34.78
